AUA1014 KSYR-KRFD
Flight info
| Callsign | AUA1014 |
|---|---|
| Flight time | N/A |
| Altitude | 40000 |
| Route | SYR DINES DERLO Q818 FNT WEBOR HIGUH EMMAS1 |
| Aircraft | B772/H-SDE2E3FGHIJ5LORVWXY/LB1D1 |
Departure
| Time | 2026-04-17 16:55 |
|---|---|
| Airport | Syracuse Hancock International Airport (KSYR) |
Arrival
| Time | N/A |
|---|---|
| Airport | Chicago Rockford International Airport (KRFD) |
| Time | Latitude | Longitude | Altitude | Speed | Heading |
|---|---|---|---|---|---|
| 2026-04-17 16:30 | 43.11358 | -76.10930 | 426 ft | 0 kts | 197° |
| 2026-04-17 16:46 | 43.11364 | -76.10927 | 426 ft | 2 kts | 186° |
| 2026-04-17 16:46 | 43.11379 | -76.10930 | 426 ft | 2 kts | 153° |
| 2026-04-17 16:46 | 43.11391 | -76.10942 | 426 ft | 2 kts | 126° |
| 2026-04-17 16:46 | 43.11397 | -76.10960 | 426 ft | 2 kts | 98° |
| 2026-04-17 16:47 | 43.11398 | -76.10971 | 426 ft | 1 kts | 85° |
| 2026-04-17 16:47 | 43.11398 | -76.10973 | 426 ft | 0 kts | 85° |
| 2026-04-17 16:50 | 43.11398 | -76.10972 | 426 ft | 0 kts | 85° |
| 2026-04-17 16:50 | 43.11400 | -76.10918 | 426 ft | 13 kts | 86° |
| 2026-04-17 16:51 | 43.11405 | -76.10739 | 426 ft | 21 kts | 87° |
| 2026-04-17 16:51 | 43.11400 | -76.10525 | 424 ft | 24 kts | 114° |
| 2026-04-17 16:51 | 43.11316 | -76.10378 | 422 ft | 13 kts | 134° |
| 2026-04-17 16:51 | 43.11242 | -76.10273 | 420 ft | 17 kts | 134° |
| 2026-04-17 16:52 | 43.11153 | -76.10147 | 419 ft | 7 kts | 133° |
| 2026-04-17 16:52 | 43.11106 | -76.10080 | 417 ft | 12 kts | 134° |
| 2026-04-17 16:52 | 43.11044 | -76.09975 | 415 ft | 16 kts | 108° |
| 2026-04-17 16:52 | 43.11043 | -76.09798 | 413 ft | 19 kts | 84° |
| 2026-04-17 16:53 | 43.11043 | -76.09612 | 411 ft | 20 kts | 86° |
| 2026-04-17 16:53 | 43.11050 | -76.09415 | 409 ft | 12 kts | 87° |
| 2026-04-17 16:53 | 43.11032 | -76.09288 | 408 ft | 15 kts | 142° |
| 2026-04-17 16:53 | 43.10935 | -76.09320 | 408 ft | 17 kts | 248° |
| 2026-04-17 16:54 | 43.10924 | -76.09508 | 409 ft | 26 kts | 267° |
| 2026-04-17 16:54 | 43.10908 | -76.09966 | 414 ft | 81 kts | 267° |
| 2026-04-17 16:54 | 43.10894 | -76.11027 | 427 ft | 140 kts | 271° |
| 2026-04-17 16:54 | 43.10838 | -76.12493 | 737 ft | 158 kts | 263° |
| 2026-04-17 16:55 | 43.10786 | -76.13974 | 1433 ft | 161 kts | 272° |
| 2026-04-17 16:55 | 43.10780 | -76.15493 | 1990 ft | 167 kts | 271° |
| 2026-04-17 16:55 | 43.10930 | -76.17168 | 2220 ft | 188 kts | 287° |
| 2026-04-17 16:55 | 43.11312 | -76.18962 | 2472 ft | 209 kts | 289° |
| 2026-04-17 16:56 | 43.11750 | -76.20970 | 2817 ft | 230 kts | 289° |
| 2026-04-17 16:56 | 43.12229 | -76.23162 | 3157 ft | 251 kts | 289° |
| 2026-04-17 16:56 | 43.12738 | -76.25503 | 3699 ft | 261 kts | 289° |
| 2026-04-17 16:56 | 43.13248 | -76.27854 | 4460 ft | 262 kts | 289° |
| 2026-04-17 16:57 | 43.13771 | -76.30273 | 5126 ft | 267 kts | 289° |
| 2026-04-17 16:57 | 43.14295 | -76.32693 | 5781 ft | 271 kts | 289° |
| 2026-04-17 16:57 | 43.14832 | -76.35179 | 6456 ft | 275 kts | 290° |
| 2026-04-17 16:57 | 43.15375 | -76.37698 | 7144 ft | 278 kts | 290° |
| 2026-04-17 16:58 | 43.15917 | -76.40213 | 7864 ft | 279 kts | 290° |
| 2026-04-17 16:58 | 43.16464 | -76.42755 | 8495 ft | 282 kts | 290° |
| 2026-04-17 16:58 | 43.17020 | -76.45338 | 9128 ft | 285 kts | 290° |
| 2026-04-17 16:58 | 43.17576 | -76.47930 | 9788 ft | 288 kts | 290° |
| 2026-04-17 16:59 | 43.18145 | -76.50581 | 10339 ft | 293 kts | 290° |
| 2026-04-17 16:59 | 43.18735 | -76.53328 | 10651 ft | 309 kts | 290° |
| 2026-04-17 16:59 | 43.19355 | -76.56215 | 10938 ft | 326 kts | 290° |
| 2026-04-17 16:59 | 43.20005 | -76.59245 | 11240 ft | 341 kts | 290° |
| 2026-04-17 17:00 | 43.20684 | -76.62422 | 11557 ft | 356 kts | 289° |
| 2026-04-17 17:00 | 43.21394 | -76.65753 | 11900 ft | 370 kts | 289° |
| 2026-04-17 17:00 | 43.22115 | -76.69148 | 12396 ft | 379 kts | 289° |
| 2026-04-17 17:00 | 43.22851 | -76.72620 | 13118 ft | 382 kts | 289° |
| 2026-04-17 17:01 | 43.23584 | -76.76091 | 13935 ft | 384 kts | 289° |
| 2026-04-17 17:01 | 43.24328 | -76.79617 | 14753 ft | 387 kts | 289° |
| 2026-04-17 17:01 | 43.25067 | -76.83123 | 15583 ft | 391 kts | 289° |
| 2026-04-17 17:01 | 43.25827 | -76.86736 | 16499 ft | 393 kts | 289° |
| 2026-04-17 17:02 | 43.26576 | -76.90308 | 17373 ft | 396 kts | 290° |
| 2026-04-17 17:02 | 43.27334 | -76.93922 | 18159 ft | 400 kts | 289° |
| 2026-04-17 17:02 | 43.28102 | -76.97594 | 18922 ft | 405 kts | 289° |
| 2026-04-17 17:02 | 43.28875 | -77.01294 | 19683 ft | 409 kts | 289° |
| 2026-04-17 17:03 | 43.29657 | -77.05048 | 20463 ft | 411 kts | 289° |
| 2026-04-17 17:03 | 43.30431 | -77.08811 | 21147 ft | 416 kts | 287° |
| 2026-04-17 17:03 | 43.30931 | -77.12736 | 21832 ft | 424 kts | 278° |